Valeria, Iowa
Current Conditions -  °F | °C
As of 1:55 AM on Wednesday 26 Nov 2014 (Local Time) from KTNU Reporting Station
Overcast Overcast  
Wind Chill: 15°   Ceiling: 5500
Heat Index: 27°   Visibility: 10mi
Dew Point: 21°   Wind: 14mph
Humidity: 80%   Direction: 140°SE
Pressure: 29.97"   Gusts: NA
Location:  41.6475°N, 93.2926°W
Report Text: KTNU 260755Z AUTO 14012KT 10SM FEW049 BKN055 OVC075 M03/M06 A2997 RMK AO2
Loading
Personal Weather Stations






























Interactive Weather Map New forecast layout! Learn more

10-Day Weather Forecast

Advertisements
Track Severe Weather on mobile